Phoenix Sky Harbor International Airport
KPHX : now visible

Airfield :











YOU CAN JOIN US ON...

 
LOGIN :

Register | Disclaimer

   EN    FR    IT 

 









Legend :    VFR   Marginal VFR   IFR   Intensive IFR   Very Intensive IFR
Visi :
Ceiling :
>= 8 km
>= 3000ft
5 to 8 km
1000 to 3000 ft
1500m to 5 km
500 to 1000 ft
800 to 1500m
200 to 500 ft
< 800m
< 200 ft
Symbols :   Thunderstorms  Fog  Heavy snow  Heavy precipitations  Wind > 20 kt






- Airport Elevation : 1135 ft
- IATA code : PHX


KPHX - Phoenix Sky Harbor International

CURRENT METAR :
  • 270351Z 23004KT 10SM SCT140 BKN250 16/08 A3001 RMK AO2 SLP155 T01610078 $

EXPIRED METARs :
  • 270251Z 00000KT 10SM SCT150 SCT250 18/07 A3001 RMK AO2 SLP155 T01780067 53003 $
  • 270151Z 22003KT 10SM FEW160 FEW250 19/07 A3000 RMK AO2 SLP153 T01890067 $

TAF KPHX
Valid from the 27 at 03:00 until the 28 at 06:00 UTC


270238Z 2703/2806 VRB02KT P6SM SCT150 BKN250
FM270600 11004KT P6SM SCT100 BKN120 BKN200
FM271000 09003KT P6SM SCT100
FM271600 29007KT P6SM FEW100
FM272100 27011KT P6SM FEW100 FEW250
FM280100 29008KT P6SM FEW250



MET'MAP, your aeronautical weather chart ! - Copyright ORBIFLY December 2007 - Disclaimer

ORBIFLY MET'MAP TEAM :

Programming & Development : Alexandra Zaïnal
Concept & original design : Baudouin d'Aumeries
Assistance for programming : Marc-Olivier Méhu
Technical & hardware support : Manuel Goepfert

Contact : metmap@orbifly.com




SOURCES & CREDITS :

   NOAA       Earth
Advisory